Kota Waris — S6RJ — position and weather

sailwx.info

Track history (hours):
 
Tides and Currents Weather Stations Pressure Air Temp Water Temp Dewpoint Dewpoint Depression Visibility Wind Speed Wind Dir Waves Ship Positions

Kota Waris

Last reported at 2015-Sep-02 07:06 UTC. Time now 2015-Sep-03 15:17 UTC.
Position N 01°16' E 104°11'.

Length 185 m; draft 7.8 m.

Type: Ship (hazmat cat A). MMSI: 564482000.

Date/timePositionNaut miles runAvg speedWind from/ knotsBaromVisibWave heightAir tempDewpointWater temp
2015-Sep-02 07:06N 01°16' E 104°11'916.8
2015-Sep-02 06:33N 01°15' E 104°02'1212.6
2015-Sep-02 05:34N 01°11' E 103°50'8 7.9
2015-Sep-02 04:33N 01°17' E 103°45'1 1.3
2015-Sep-02 03:33N 01°17' E 103°46'0 0.0
2015-Sep-02 02:33N 01°17' E 103°46'0 0.0
2015-Sep-02 01:33N 01°17' E 103°46'0 0.0
2015-Sep-02 00:33N 01°17' E 103°46'0 0.0
2015-Sep-01 23:33N 01°17' E 103°46'0 0.0
2015-Sep-01 22:33N 01°17' E 103°46'0 0.0
2015-Sep-01 21:33N 01°17' E 103°46'0 0.0
2015-Sep-01 20:33N 01°17' E 103°46'0 0.0
2015-Sep-01 19:33N 01°17' E 103°46'0 0.0
2015-Sep-01 18:33N 01°17' E 103°46'0 0.0
2015-Sep-01 17:34N 01°17' E 103°46'0 0.0
2015-Sep-01 16:34N 01°17' E 103°46'0 0.0
2015-Sep-01 15:34N 01°17' E 103°46'0 0.0
2015-Sep-01 14:32N 01°17' E 103°46'0 0.0
2015-Sep-01 13:33N 01°17' E 103°46'0 0.0
2015-Sep-01 12:34N 01°17' E 103°46'0 0.0
2015-Sep-01 11:34N 01°17' E 103°46'0 0.0
2015-Sep-01 10:33N 01°17' E 103°46'0 0.0
2015-Sep-01 09:33N 01°17' E 103°46'0 0.0
2015-Sep-01 08:33N 01°17' E 103°46'0 0.0
2015-Sep-01 07:33N 01°17' E 103°46'0 0.0
2015-Sep-01 06:33N 01°17' E 103°46'0 0.0
2015-Sep-01 05:33N 01°17' E 103°46'0 0.0
2015-Sep-01 04:33N 01°17' E 103°46'4 3.8
2015-Sep-01 03:33N 01°13' E 103°48'9 9.2
2015-Sep-01 02:33N 01°15' E 103°57'9 8.6
2015-Sep-01 01:33N 01°16' E 104°05'  
2015-Aug-27 17:26N 01°16' E 104°10'1618.8
2015-Aug-27 16:34N 01°13' E 103°54'10 9.5
2015-Aug-27 15:33N 01°16' E 103°45'1 1.3
2015-Aug-27 14:33N 01°17' E 103°46'0 0.0
2015-Aug-27 13:27N 01°17' E 103°46'0 0.0
2015-Aug-27 12:33N 01°17' E 103°46'0 0.0
2015-Aug-27 11:27N 01°17' E 103°46'0 0.0
2015-Aug-27 10:30N 01°17' E 103°46'0 0.0
2015-Aug-27 09:33N 01°17' E 103°46'0 0.0
2015-Aug-27 08:33N 01°17' E 103°46'0 0.0
2015-Aug-27 07:33N 01°17' E 103°46'0 0.0
2015-Aug-27 06:27N 01°17' E 103°46'0 0.0
2015-Aug-27 05:33N 01°17' E 103°46'0 0.0
2015-Aug-27 04:15N 01°17' E 103°46'0 0.0
2015-Aug-27 03:33N 01°17' E 103°46'0 0.0
2015-Aug-27 02:33N 01°17' E 103°46'1 0.1
2015-Aug-26 15:28N 01°17' E 103°46'4 4.9
2015-Aug-26 14:33N 01°13' E 103°48'7 6.9
2015-Aug-26 13:33N 01°14' E 103°55'1110.8
2015-Aug-26 12:33N 01°17' E 104°05'  
2015-Aug-23 22:09N 16°11' E 108°19'711.7
2015-Aug-23 21:33N 16°08' E 108°12'1 0.7
2015-Aug-23 20:29N 16°07' E 108°13'0 0.0
2015-Aug-23 19:23N 16°07' E 108°13'0 0.0
2015-Aug-23 18:32N 16°07' E 108°13'0 0.0
2015-Aug-23 17:29N 16°07' E 108°13'0 0.0
2015-Aug-23 16:29N 16°07' E 108°13'0 0.1
2015-Aug-23 15:33N 16°07' E 108°13'2 2.4
2015-Aug-23 14:31N 16°09' E 108°12'2 1.8
2015-Aug-23 13:33N 16°10' E 108°13'  
Track history (hours):
 
Tides and Currents Weather Stations Pressure Air Temp Water Temp Dewpoint Dewpoint Depression Visibility Wind Speed Wind Dir Waves Ship Positions

Kota Waris

Last reported at 2015-Sep-02 07:06 UTC. Time now 2015-Sep-03 15:17 UTC.
Position N 01°16' E 104°11'.

Length 185 m; draft 7.8 m.

Type: Ship (hazmat cat A). MMSI: 564482000.

Date/timePositionNaut miles runAvg speedWind from/ knotsBaromVisibWave heightAir tempDewpointWater temp
2015-Sep-02 07:06N 01°16' E 104°11'916.8
2015-Sep-02 06:33N 01°15' E 104°02'1212.6
2015-Sep-02 05:34N 01°11' E 103°50'8 7.9
2015-Sep-02 04:33N 01°17' E 103°45'1 1.3
2015-Sep-02 03:33N 01°17' E 103°46'0 0.0
2015-Sep-02 02:33N 01°17' E 103°46'0 0.0
2015-Sep-02 01:33N 01°17' E 103°46'0 0.0
2015-Sep-02 00:33N 01°17' E 103°46'0 0.0
2015-Sep-01 23:33N 01°17' E 103°46'0 0.0
2015-Sep-01 22:33N 01°17' E 103°46'0 0.0
2015-Sep-01 21:33N 01°17' E 103°46'0 0.0
2015-Sep-01 20:33N 01°17' E 103°46'0 0.0
2015-Sep-01 19:33N 01°17' E 103°46'0 0.0
2015-Sep-01 18:33N 01°17' E 103°46'0 0.0
2015-Sep-01 17:34N 01°17' E 103°46'0 0.0
2015-Sep-01 16:34N 01°17' E 103°46'0 0.0
2015-Sep-01 15:34N 01°17' E 103°46'0 0.0
2015-Sep-01 14:32N 01°17' E 103°46'0 0.0
2015-Sep-01 13:33N 01°17' E 103°46'0 0.0
2015-Sep-01 12:34N 01°17' E 103°46'0 0.0
2015-Sep-01 11:34N 01°17' E 103°46'0 0.0
2015-Sep-01 10:33N 01°17' E 103°46'0 0.0
2015-Sep-01 09:33N 01°17' E 103°46'0 0.0
2015-Sep-01 08:33N 01°17' E 103°46'0 0.0
2015-Sep-01 07:33N 01°17' E 103°46'0 0.0
2015-Sep-01 06:33N 01°17' E 103°46'0 0.0
2015-Sep-01 05:33N 01°17' E 103°46'0 0.0
2015-Sep-01 04:33N 01°17' E 103°46'4 3.8
2015-Sep-01 03:33N 01°13' E 103°48'9 9.2
2015-Sep-01 02:33N 01°15' E 103°57'9 8.6
2015-Sep-01 01:33N 01°16' E 104°05'  
2015-Aug-27 17:26N 01°16' E 104°10'1618.8
2015-Aug-27 16:34N 01°13' E 103°54'10 9.5
2015-Aug-27 15:33N 01°16' E 103°45'1 1.3
2015-Aug-27 14:33N 01°17' E 103°46'0 0.0
2015-Aug-27 13:27N 01°17' E 103°46'0 0.0
2015-Aug-27 12:33N 01°17' E 103°46'0 0.0
2015-Aug-27 11:27N 01°17' E 103°46'0 0.0
2015-Aug-27 10:30N 01°17' E 103°46'0 0.0
2015-Aug-27 09:33N 01°17' E 103°46'0 0.0
2015-Aug-27 08:33N 01°17' E 103°46'0 0.0
2015-Aug-27 07:33N 01°17' E 103°46'0 0.0
2015-Aug-27 06:27N 01°17' E 103°46'0 0.0
2015-Aug-27 05:33N 01°17' E 103°46'0 0.0
2015-Aug-27 04:15N 01°17' E 103°46'0 0.0
2015-Aug-27 03:33N 01°17' E 103°46'0 0.0
2015-Aug-27 02:33N 01°17' E 103°46'1 0.1
2015-Aug-26 15:28N 01°17' E 103°46'4 4.9
2015-Aug-26 14:33N 01°13' E 103°48'7 6.9
2015-Aug-26 13:33N 01°14' E 103°55'1110.8
2015-Aug-26 12:33N 01°17' E 104°05'  
2015-Aug-23 22:09N 16°11' E 108°19'711.7
2015-Aug-23 21:33N 16°08' E 108°12'1 0.7
2015-Aug-23 20:29N 16°07' E 108°13'0 0.0
2015-Aug-23 19:23N 16°07' E 108°13'0 0.0
2015-Aug-23 18:32N 16°07' E 108°13'0 0.0
2015-Aug-23 17:29N 16°07' E 108°13'0 0.0
2015-Aug-23 16:29N 16°07' E 108°13'0 0.1
2015-Aug-23 15:33N 16°07' E 108°13'2 2.4
2015-Aug-23 14:31N 16°09' E 108°12'2 1.8
2015-Aug-23 13:33N 16°10' E 108°13'  

Dump ship's entire track history